sensor_id;sensor_type;location;lat;lon;timestamp;temperature;humidity
13721;DHT22;6932;51.438;5.470;2022-07-04T00:00:16;22.40;70.40
13721;DHT22;6932;51.438;5.470;2022-07-04T00:02:45;22.30;70.50
13721;DHT22;6932;51.438;5.470;2022-07-04T00:05:13;22.30;70.60
13721;DHT22;6932;51.438;5.470;2022-07-04T00:07:44;22.30;70.70
13721;DHT22;6932;51.438;5.470;2022-07-04T00:10:12;22.30;70.80
13721;DHT22;6932;51.438;5.470;2022-07-04T00:12:41;22.30;70.90
13721;DHT22;6932;51.438;5.470;2022-07-04T00:15:07;22.20;71.00
13721;DHT22;6932;51.438;5.470;2022-07-04T00:17:34;22.20;71.10
13721;DHT22;6932;51.438;5.470;2022-07-04T00:20:00;22.20;71.10
13721;DHT22;6932;51.438;5.470;2022-07-04T00:22:27;22.20;71.20
13721;DHT22;6932;51.438;5.470;2022-07-04T00:24:53;22.20;71.30
13721;DHT22;6932;51.438;5.470;2022-07-04T00:27:19;22.20;71.40
13721;DHT22;6932;51.438;5.470;2022-07-04T00:29:44;22.20;71.40
13721;DHT22;6932;51.438;5.470;2022-07-04T00:32:10;22.20;71.60
13721;DHT22;6932;51.438;5.470;2022-07-04T00:34:36;22.10;71.60
13721;DHT22;6932;51.438;5.470;2022-07-04T00:37:02;22.10;71.70
13721;DHT22;6932;51.438;5.470;2022-07-04T00:39:29;22.10;71.70
13721;DHT22;6932;51.438;5.470;2022-07-04T00:41:54;22.10;71.90
13721;DHT22;6932;51.438;5.470;2022-07-04T00:44:20;22.10;71.90
13721;DHT22;6932;51.438;5.470;2022-07-04T00:46:47;22.00;71.90
13721;DHT22;6932;51.438;5.470;2022-07-04T00:49:14;22.00;72.20
13721;DHT22;6932;51.438;5.470;2022-07-04T00:51:43;22.00;72.30
13721;DHT22;6932;51.438;5.470;2022-07-04T00:54:13;22.00;72.40
13721;DHT22;6932;51.438;5.470;2022-07-04T00:56:43;21.90;72.40
13721;DHT22;6932;51.438;5.470;2022-07-04T00:59:10;21.90;72.30
13721;DHT22;6932;51.438;5.470;2022-07-04T01:01:37;21.80;72.40
13721;DHT22;6932;51.438;5.470;2022-07-04T01:04:05;21.80;72.50
13721;DHT22;6932;51.438;5.470;2022-07-04T01:06:32;21.80;72.70
13721;DHT22;6932;51.438;5.470;2022-07-04T01:08:59;21.70;72.70
13721;DHT22;6932;51.438;5.470;2022-07-04T01:11:26;21.70;72.70
13721;DHT22;6932;51.438;5.470;2022-07-04T01:13:53;21.70;72.80
13721;DHT22;6932;51.438;5.470;2022-07-04T01:16:20;21.60;72.90
13721;DHT22;6932;51.438;5.470;2022-07-04T01:18:45;21.60;72.90
13721;DHT22;6932;51.438;5.470;2022-07-04T01:21:11;21.60;72.90
13721;DHT22;6932;51.438;5.470;2022-07-04T01:23:39;21.60;73.10
13721;DHT22;6932;51.438;5.470;2022-07-04T01:26:06;21.60;73.10
13721;DHT22;6932;51.438;5.470;2022-07-04T01:28:32;21.50;73.10
13721;DHT22;6932;51.438;5.470;2022-07-04T01:30:58;21.50;73.30
13721;DHT22;6932;51.438;5.470;2022-07-04T01:33:24;21.50;73.30
13721;DHT22;6932;51.438;5.470;2022-07-04T01:35:50;21.40;73.30
13721;DHT22;6932;51.438;5.470;2022-07-04T01:38:16;21.40;73.40
13721;DHT22;6932;51.438;5.470;2022-07-04T01:40:42;21.40;73.40
13721;DHT22;6932;51.438;5.470;2022-07-04T01:43:08;21.40;73.60
13721;DHT22;6932;51.438;5.470;2022-07-04T01:45:34;21.40;73.40
13721;DHT22;6932;51.438;5.470;2022-07-04T01:48:06;21.40;73.40
13721;DHT22;6932;51.438;5.470;2022-07-04T01:50:33;21.40;73.40
13721;DHT22;6932;51.438;5.470;2022-07-04T01:53:00;21.40;73.50
13721;DHT22;6932;51.438;5.470;2022-07-04T01:55:26;21.40;73.40
13721;DHT22;6932;51.438;5.470;2022-07-04T01:57:53;21.30;73.30
13721;DHT22;6932;51.438;5.470;2022-07-04T02:00:19;21.30;73.40
13721;DHT22;6932;51.438;5.470;2022-07-04T02:03:03;21.30;73.40
13721;DHT22;6932;51.438;5.470;2022-07-04T02:05:29;21.30;73.40
13721;DHT22;6932;51.438;5.470;2022-07-04T02:07:55;21.30;73.40
13721;DHT22;6932;51.438;5.470;2022-07-04T02:10:21;21.30;73.50
13721;DHT22;6932;51.438;5.470;2022-07-04T02:12:47;21.30;73.70
13721;DHT22;6932;51.438;5.470;2022-07-04T02:15:36;21.30;73.70
13721;DHT22;6932;51.438;5.470;2022-07-04T02:18:05;21.30;73.80
13721;DHT22;6932;51.438;5.470;2022-07-04T02:20:36;21.20;73.80
13721;DHT22;6932;51.438;5.470;2022-07-04T02:23:04;21.20;74.00
13721;DHT22;6932;51.438;5.470;2022-07-04T02:25:30;21.20;74.10
13721;DHT22;6932;51.438;5.470;2022-07-04T02:27:57;21.20;74.20
13721;DHT22;6932;51.438;5.470;2022-07-04T02:30:23;21.20;74.20
13721;DHT22;6932;51.438;5.470;2022-07-04T02:32:49;21.20;74.10
13721;DHT22;6932;51.438;5.470;2022-07-04T02:35:15;21.10;74.10
13721;DHT22;6932;51.438;5.470;2022-07-04T02:37:41;21.10;74.20
13721;DHT22;6932;51.438;5.470;2022-07-04T02:40:08;21.20;74.30
13721;DHT22;6932;51.438;5.470;2022-07-04T02:42:35;21.10;74.20
13721;DHT22;6932;51.438;5.470;2022-07-04T02:45:03;21.10;74.10
13721;DHT22;6932;51.438;5.470;2022-07-04T02:47:29;21.10;74.20
13721;DHT22;6932;51.438;5.470;2022-07-04T02:49:55;21.10;74.10
13721;DHT22;6932;51.438;5.470;2022-07-04T02:52:21;21.10;74.10
13721;DHT22;6932;51.438;5.470;2022-07-04T02:54:47;21.10;74.30
13721;DHT22;6932;51.438;5.470;2022-07-04T02:57:14;21.00;74.30
13721;DHT22;6932;51.438;5.470;2022-07-04T02:59:40;21.00;74.40
13721;DHT22;6932;51.438;5.470;2022-07-04T03:02:06;21.00;74.60
13721;DHT22;6932;51.438;5.470;2022-07-04T03:04:32;21.00;74.60
13721;DHT22;6932;51.438;5.470;2022-07-04T03:06:58;21.00;74.70
13721;DHT22;6932;51.438;5.470;2022-07-04T03:09:24;21.00;74.80
13721;DHT22;6932;51.438;5.470;2022-07-04T03:11:52;21.00;74.90
13721;DHT22;6932;51.438;5.470;2022-07-04T03:14:18;21.00;75.00
13721;DHT22;6932;51.438;5.470;2022-07-04T03:16:44;21.00;75.10
13721;DHT22;6932;51.438;5.470;2022-07-04T03:19:10;21.00;75.20
13721;DHT22;6932;51.438;5.470;2022-07-04T03:21:35;20.90;75.20
13721;DHT22;6932;51.438;5.470;2022-07-04T03:24:01;20.90;75.30
13721;DHT22;6932;51.438;5.470;2022-07-04T03:26:29;21.00;75.50
13721;DHT22;6932;51.438;5.470;2022-07-04T03:28:57;20.90;75.50
13721;DHT22;6932;51.438;5.470;2022-07-04T03:31:24;20.90;75.40
13721;DHT22;6932;51.438;5.470;2022-07-04T03:33:52;20.90;75.40
13721;DHT22;6932;51.438;5.470;2022-07-04T03:36:18;20.80;75.40
13721;DHT22;6932;51.438;5.470;2022-07-04T03:38:45;20.80;75.50
13721;DHT22;6932;51.438;5.470;2022-07-04T03:41:12;20.70;75.60
13721;DHT22;6932;51.438;5.470;2022-07-04T03:43:38;20.70;75.80
13721;DHT22;6932;51.438;5.470;2022-07-04T03:46:04;20.60;76.00
13721;DHT22;6932;51.438;5.470;2022-07-04T03:48:30;20.60;76.30
13721;DHT22;6932;51.438;5.470;2022-07-04T03:50:56;20.60;76.40
13721;DHT22;6932;51.438;5.470;2022-07-04T03:53:22;20.50;76.40
13721;DHT22;6932;51.438;5.470;2022-07-04T03:55:48;20.50;76.50
13721;DHT22;6932;51.438;5.470;2022-07-04T03:58:14;20.50;76.60
13721;DHT22;6932;51.438;5.470;2022-07-04T04:00:39;20.50;76.80
13721;DHT22;6932;51.438;5.470;2022-07-04T04:03:07;20.40;76.90
13721;DHT22;6932;51.438;5.470;2022-07-04T04:05:52;20.40;77.10
13721;DHT22;6932;51.438;5.470;2022-07-04T04:08:18;20.40;77.10
13721;DHT22;6932;51.438;5.470;2022-07-04T04:10:43;20.40;77.10
13721;DHT22;6932;51.438;5.470;2022-07-04T04:13:09;20.40;77.10
13721;DHT22;6932;51.438;5.470;2022-07-04T04:15:35;20.40;77.10
13721;DHT22;6932;51.438;5.470;2022-07-04T04:18:01;20.50;77.20
13721;DHT22;6932;51.438;5.470;2022-07-04T04:20:26;20.50;77.30
13721;DHT22;6932;51.438;5.470;2022-07-04T04:22:52;20.60;77.20
13721;DHT22;6932;51.438;5.470;2022-07-04T04:25:18;20.60;77.00
13721;DHT22;6932;51.438;5.470;2022-07-04T04:27:44;20.60;76.90
13721;DHT22;6932;51.438;5.470;2022-07-04T04:30:10;20.70;77.00
13721;DHT22;6932;51.438;5.470;2022-07-04T04:32:36;20.70;76.90
13721;DHT22;6932;51.438;5.470;2022-07-04T04:35:02;20.70;76.90
13721;DHT22;6932;51.438;5.470;2022-07-04T04:37:28;20.70;77.00
13721;DHT22;6932;51.438;5.470;2022-07-04T04:39:53;20.80;77.00
13721;DHT22;6932;51.438;5.470;2022-07-04T04:42:19;20.80;77.10
13721;DHT22;6932;51.438;5.470;2022-07-04T04:44:45;20.80;77.10
13721;DHT22;6932;51.438;5.470;2022-07-04T04:47:11;20.90;77.10
13721;DHT22;6932;51.438;5.470;2022-07-04T04:49:36;20.90;77.10
13721;DHT22;6932;51.438;5.470;2022-07-04T04:52:02;21.00;77.00
13721;DHT22;6932;51.438;5.470;2022-07-04T04:54:29;21.10;77.10
13721;DHT22;6932;51.438;5.470;2022-07-04T04:56:55;21.10;76.90
13721;DHT22;6932;51.438;5.470;2022-07-04T04:59:20;21.20;77.40
13721;DHT22;6932;51.438;5.470;2022-07-04T05:01:46;21.30;76.60
13721;DHT22;6932;51.438;5.470;2022-07-04T05:04:12;21.30;76.50
13721;DHT22;6932;51.438;5.470;2022-07-04T05:06:40;21.40;76.50
13721;DHT22;6932;51.438;5.470;2022-07-04T05:09:06;21.50;76.40
13721;DHT22;6932;51.438;5.470;2022-07-04T05:11:32;21.60;76.40
13721;DHT22;6932;51.438;5.470;2022-07-04T05:13:57;21.60;76.30
13721;DHT22;6932;51.438;5.470;2022-07-04T05:16:23;21.70;76.10
13721;DHT22;6932;51.438;5.470;2022-07-04T05:18:49;21.80;76.70
13721;DHT22;6932;51.438;5.470;2022-07-04T05:21:15;21.90;76.00
13721;DHT22;6932;51.438;5.470;2022-07-04T05:23:40;22.00;76.00
13721;DHT22;6932;51.438;5.470;2022-07-04T05:26:06;22.10;75.90
13721;DHT22;6932;51.438;5.470;2022-07-04T05:28:32;22.20;75.70
13721;DHT22;6932;51.438;5.470;2022-07-04T05:30:58;22.30;75.60
13721;DHT22;6932;51.438;5.470;2022-07-04T05:33:24;22.40;75.70
13721;DHT22;6932;51.438;5.470;2022-07-04T05:35:49;22.40;75.40
13721;DHT22;6932;51.438;5.470;2022-07-04T05:38:15;22.60;75.30
13721;DHT22;6932;51.438;5.470;2022-07-04T05:40:41;22.70;75.00
13721;DHT22;6932;51.438;5.470;2022-07-04T05:43:07;22.80;75.00
13721;DHT22;6932;51.438;5.470;2022-07-04T05:45:32;22.90;75.00
13721;DHT22;6932;51.438;5.470;2022-07-04T05:47:58;23.00;75.00
13721;DHT22;6932;51.438;5.470;2022-07-04T05:50:24;23.10;74.70
13721;DHT22;6932;51.438;5.470;2022-07-04T05:52:49;23.20;74.70
13721;DHT22;6932;51.438;5.470;2022-07-04T05:55:15;23.20;74.50
13721;DHT22;6932;51.438;5.470;2022-07-04T05:57:41;23.30;74.50
13721;DHT22;6932;51.438;5.470;2022-07-04T06:00:07;23.40;74.60
13721;DHT22;6932;51.438;5.470;2022-07-04T06:02:33;23.50;74.50
13721;DHT22;6932;51.438;5.470;2022-07-04T06:04:59;23.60;74.50
13721;DHT22;6932;51.438;5.470;2022-07-04T06:07:25;23.70;74.40
13721;DHT22;6932;51.438;5.470;2022-07-04T06:09:51;23.80;74.30
13721;DHT22;6932;51.438;5.470;2022-07-04T06:12:16;23.90;74.40
13721;DHT22;6932;51.438;5.470;2022-07-04T06:14:42;24.00;73.90
13721;DHT22;6932;51.438;5.470;2022-07-04T06:17:08;24.20;73.60
13721;DHT22;6932;51.438;5.470;2022-07-04T06:19:33;24.30;73.50
13721;DHT22;6932;51.438;5.470;2022-07-04T06:21:59;24.40;73.30
13721;DHT22;6932;51.438;5.470;2022-07-04T06:24:25;24.50;73.40
13721;DHT22;6932;51.438;5.470;2022-07-04T06:26:51;24.50;73.30
13721;DHT22;6932;51.438;5.470;2022-07-04T06:29:17;24.70;73.00
13721;DHT22;6932;51.438;5.470;2022-07-04T06:31:42;24.80;72.70
13721;DHT22;6932;51.438;5.470;2022-07-04T06:34:08;24.90;72.50
13721;DHT22;6932;51.438;5.470;2022-07-04T06:36:52;25.00;72.60
13721;DHT22;6932;51.438;5.470;2022-07-04T06:39:18;25.10;72.50
13721;DHT22;6932;51.438;5.470;2022-07-04T06:41:44;25.20;72.20
13721;DHT22;6932;51.438;5.470;2022-07-04T06:44:09;25.30;71.90
13721;DHT22;6932;51.438;5.470;2022-07-04T06:46:35;25.50;71.70
13721;DHT22;6932;51.438;5.470;2022-07-04T06:49:01;25.60;71.40
13721;DHT22;6932;51.438;5.470;2022-07-04T06:51:27;25.80;71.00
13721;DHT22;6932;51.438;5.470;2022-07-04T06:53:53;25.80;70.70
13721;DHT22;6932;51.438;5.470;2022-07-04T06:56:19;25.90;70.90
13721;DHT22;6932;51.438;5.470;2022-07-04T06:58:45;25.90;70.70
13721;DHT22;6932;51.438;5.470;2022-07-04T07:01:10;26.00;70.60
13721;DHT22;6932;51.438;5.470;2022-07-04T07:03:36;26.10;70.30
13721;DHT22;6932;51.438;5.470;2022-07-04T07:06:02;26.20;69.80
13721;DHT22;6932;51.438;5.470;2022-07-04T07:08:31;26.20;69.60
13721;DHT22;6932;51.438;5.470;2022-07-04T07:10:58;26.30;69.20
13721;DHT22;6932;51.438;5.470;2022-07-04T07:13:42;26.40;68.70
13721;DHT22;6932;51.438;5.470;2022-07-04T07:16:10;26.50;68.90
13721;DHT22;6932;51.438;5.470;2022-07-04T07:18:36;26.60;68.20
13721;DHT22;6932;51.438;5.470;2022-07-04T07:21:02;26.60;67.80
13721;DHT22;6932;51.438;5.470;2022-07-04T07:23:29;26.70;67.50
13721;DHT22;6932;51.438;5.470;2022-07-04T07:25:55;26.80;66.90
13721;DHT22;6932;51.438;5.470;2022-07-04T07:28:21;26.80;66.60
13721;DHT22;6932;51.438;5.470;2022-07-04T07:30:47;26.90;66.30
13721;DHT22;6932;51.438;5.470;2022-07-04T07:33:13;27.00;66.10
13721;DHT22;6932;51.438;5.470;2022-07-04T07:35:38;27.10;66.00
13721;DHT22;6932;51.438;5.470;2022-07-04T07:38:05;27.10;66.30
13721;DHT22;6932;51.438;5.470;2022-07-04T07:40:34;27.20;65.50
13721;DHT22;6932;51.438;5.470;2022-07-04T07:43:00;27.30;64.60
13721;DHT22;6932;51.438;5.470;2022-07-04T07:45:25;27.40;64.10
13721;DHT22;6932;51.438;5.470;2022-07-04T07:47:51;27.50;64.00
13721;DHT22;6932;51.438;5.470;2022-07-04T07:50:17;27.60;63.60
13721;DHT22;6932;51.438;5.470;2022-07-04T07:52:43;27.70;63.60
13721;DHT22;6932;51.438;5.470;2022-07-04T07:55:08;27.70;63.70
13721;DHT22;6932;51.438;5.470;2022-07-04T07:57:34;27.80;63.50
13721;DHT22;6932;51.438;5.470;2022-07-04T08:00:00;27.90;63.40
13721;DHT22;6932;51.438;5.470;2022-07-04T08:02:26;27.90;62.30
13721;DHT22;6932;51.438;5.470;2022-07-04T08:05:11;28.00;62.50
13721;DHT22;6932;51.438;5.470;2022-07-04T08:07:38;28.10;62.70
13721;DHT22;6932;51.438;5.470;2022-07-04T08:10:05;28.20;63.20
13721;DHT22;6932;51.438;5.470;2022-07-04T08:12:32;28.20;62.50
13721;DHT22;6932;51.438;5.470;2022-07-04T08:14:58;28.30;62.10
13721;DHT22;6932;51.438;5.470;2022-07-04T08:17:24;28.30;61.80
13721;DHT22;6932;51.438;5.470;2022-07-04T08:19:49;28.40;61.60
13721;DHT22;6932;51.438;5.470;2022-07-04T08:22:16;28.40;61.30
13721;DHT22;6932;51.438;5.470;2022-07-04T08:24:43;28.50;61.10
13721;DHT22;6932;51.438;5.470;2022-07-04T08:27:09;28.50;60.70
13721;DHT22;6932;51.438;5.470;2022-07-04T08:29:36;28.60;60.80
13721;DHT22;6932;51.438;5.470;2022-07-04T08:32:02;28.60;60.90
13721;DHT22;6932;51.438;5.470;2022-07-04T08:34:28;28.70;60.80
13721;DHT22;6932;51.438;5.470;2022-07-04T08:36:54;28.80;60.90
13721;DHT22;6932;51.438;5.470;2022-07-04T08:39:20;28.80;61.00
13721;DHT22;6932;51.438;5.470;2022-07-04T08:41:46;28.90;60.80
13721;DHT22;6932;51.438;5.470;2022-07-04T08:44:14;29.00;60.40
13721;DHT22;6932;51.438;5.470;2022-07-04T08:46:42;29.00;60.00
13721;DHT22;6932;51.438;5.470;2022-07-04T08:49:17;29.00;60.20
13721;DHT22;6932;51.438;5.470;2022-07-04T08:52:05;29.10;60.30
13721;DHT22;6932;51.438;5.470;2022-07-04T08:54:37;29.20;60.10
13721;DHT22;6932;51.438;5.470;2022-07-04T08:57:22;29.30;59.70
13721;DHT22;6932;51.438;5.470;2022-07-04T09:00:07;29.40;59.70
13721;DHT22;6932;51.438;5.470;2022-07-04T09:02:34;29.50;59.70
13721;DHT22;6932;51.438;5.470;2022-07-04T09:05:03;29.60;59.60
13721;DHT22;6932;51.438;5.470;2022-07-04T09:07:30;29.70;59.40
13721;DHT22;6932;51.438;5.470;2022-07-04T09:09:57;29.70;59.00
13721;DHT22;6932;51.438;5.470;2022-07-04T09:12:24;29.70;58.70
13721;DHT22;6932;51.438;5.470;2022-07-04T09:14:50;29.80;58.50
13721;DHT22;6932;51.438;5.470;2022-07-04T09:17:19;29.80;58.10
13721;DHT22;6932;51.438;5.470;2022-07-04T09:19:45;29.90;58.00
13721;DHT22;6932;51.438;5.470;2022-07-04T09:22:36;29.90;57.80
13721;DHT22;6932;51.438;5.470;2022-07-04T09:25:04;30.00;57.60
13721;DHT22;6932;51.438;5.470;2022-07-04T09:27:35;30.00;57.50
13721;DHT22;6932;51.438;5.470;2022-07-04T09:30:04;30.10;57.30
13721;DHT22;6932;51.438;5.470;2022-07-04T09:32:47;30.10;56.80
13721;DHT22;6932;51.438;5.470;2022-07-04T09:35:21;30.10;56.90
13721;DHT22;6932;51.438;5.470;2022-07-04T09:37:53;30.20;56.00
13721;DHT22;6932;51.438;5.470;2022-07-04T09:40:22;30.30;56.90
13721;DHT22;6932;51.438;5.470;2022-07-04T09:42:48;30.30;57.00
13721;DHT22;6932;51.438;5.470;2022-07-04T09:45:14;30.40;56.90
13721;DHT22;6932;51.438;5.470;2022-07-04T09:47:41;30.40;56.10
13721;DHT22;6932;51.438;5.470;2022-07-04T09:50:12;30.50;55.60
13721;DHT22;6932;51.438;5.470;2022-07-04T09:52:56;30.50;56.00
13721;DHT22;6932;51.438;5.470;2022-07-04T09:58:01;30.60;56.00
13721;DHT22;6932;51.438;5.470;2022-07-04T10:00:34;30.70;55.10
13721;DHT22;6932;51.438;5.470;2022-07-04T10:03:21;30.80;55.10
13721;DHT22;6932;51.438;5.470;2022-07-04T10:06:06;30.80;55.40
13721;DHT22;6932;51.438;5.470;2022-07-04T10:08:38;30.90;55.80
13721;DHT22;6932;51.438;5.470;2022-07-04T10:11:06;31.10;55.40
13721;DHT22;6932;51.438;5.470;2022-07-04T10:13:33;31.10;55.10
13721;DHT22;6932;51.438;5.470;2022-07-04T10:15:59;31.20;54.90
13721;DHT22;6932;51.438;5.470;2022-07-04T10:18:26;31.30;54.60
13721;DHT22;6932;51.438;5.470;2022-07-04T10:20:54;31.40;54.40
13721;DHT22;6932;51.438;5.470;2022-07-04T10:23:22;31.40;54.10
13721;DHT22;6932;51.438;5.470;2022-07-04T10:25:52;31.50;54.30
13721;DHT22;6932;51.438;5.470;2022-07-04T10:28:19;31.60;54.00
13721;DHT22;6932;51.438;5.470;2022-07-04T10:30:48;31.60;53.50
13721;DHT22;6932;51.438;5.470;2022-07-04T10:33:20;31.70;53.90
13721;DHT22;6932;51.438;5.470;2022-07-04T10:38:18;31.60;53.90
13721;DHT22;6932;51.438;5.470;2022-07-04T10:40:47;31.50;53.40
13721;DHT22;6932;51.438;5.470;2022-07-04T10:49:05;31.40;53.90
13721;DHT22;6932;51.438;5.470;2022-07-04T10:54:35;31.30;54.00
13721;DHT22;6932;51.438;5.470;2022-07-04T11:05:05;31.10;53.70
13721;DHT22;6932;51.438;5.470;2022-07-04T11:18:00;30.80;53.90
13721;DHT22;6932;51.438;5.470;2022-07-04T11:20:33;30.80;53.60
13721;DHT22;6932;51.438;5.470;2022-07-04T11:23:11;30.80;53.80
13721;DHT22;6932;51.438;5.470;2022-07-04T11:25:43;30.80;53.10
13721;DHT22;6932;51.438;5.470;2022-07-04T11:30:53;30.80;53.90
13721;DHT22;6932;51.438;5.470;2022-07-04T11:33:22;30.90;53.50
13721;DHT22;6932;51.438;5.470;2022-07-04T11:44:20;31.00;53.20
13721;DHT22;6932;51.438;5.470;2022-07-04T11:49:53;31.00;52.60
13721;DHT22;6932;51.438;5.470;2022-07-04T11:52:26;31.00;52.50
13721;DHT22;6932;51.438;5.470;2022-07-04T11:54:56;31.00;52.70
13721;DHT22;6932;51.438;5.470;2022-07-04T11:57:27;31.00;52.70
13721;DHT22;6932;51.438;5.470;2022-07-04T12:00:01;31.00;52.50
13721;DHT22;6932;51.438;5.470;2022-07-04T12:02:33;31.00;52.60
13721;DHT22;6932;51.438;5.470;2022-07-04T12:04:59;31.10;52.20
13721;DHT22;6932;51.438;5.470;2022-07-04T12:07:28;31.10;52.90
13721;DHT22;6932;51.438;5.470;2022-07-04T12:10:22;31.10;52.30
13721;DHT22;6932;51.438;5.470;2022-07-04T12:13:00;31.00;52.40
13721;DHT22;6932;51.438;5.470;2022-07-04T12:18:21;30.90;53.50
13721;DHT22;6932;51.438;5.470;2022-07-04T12:20:49;30.80;54.00
13721;DHT22;6932;51.438;5.470;2022-07-04T12:23:19;30.80;54.50
13721;DHT22;6932;51.438;5.470;2022-07-04T12:25:48;30.60;55.00
13721;DHT22;6932;51.438;5.470;2022-07-04T12:28:17;30.60;55.30
13721;DHT22;6932;51.438;5.470;2022-07-04T12:30:55;30.40;55.30
13721;DHT22;6932;51.438;5.470;2022-07-04T12:33:25;30.30;55.30
13721;DHT22;6932;51.438;5.470;2022-07-04T12:36:02;30.30;55.70
13721;DHT22;6932;51.438;5.470;2022-07-04T12:46:14;30.20;55.20
13721;DHT22;6932;51.438;5.470;2022-07-04T12:48:54;30.20;55.40
13721;DHT22;6932;51.438;5.470;2022-07-04T12:51:27;30.20;55.60
13721;DHT22;6932;51.438;5.470;2022-07-04T12:53:56;30.20;55.60
13721;DHT22;6932;51.438;5.470;2022-07-04T12:56:32;30.20;55.60
13721;DHT22;6932;51.438;5.470;2022-07-04T12:59:12;30.10;55.00
13721;DHT22;6932;51.438;5.470;2022-07-04T13:01:41;30.10;54.80
13721;DHT22;6932;51.438;5.470;2022-07-04T13:04:08;30.10;55.30
13721;DHT22;6932;51.438;5.470;2022-07-04T13:06:34;30.10;55.60
13721;DHT22;6932;51.438;5.470;2022-07-04T13:09:02;30.10;55.40
13721;DHT22;6932;51.438;5.470;2022-07-04T13:11:29;30.20;55.20
13721;DHT22;6932;51.438;5.470;2022-07-04T13:14:13;30.20;55.20
13721;DHT22;6932;51.438;5.470;2022-07-04T13:16:39;30.20;55.50
13721;DHT22;6932;51.438;5.470;2022-07-04T13:19:04;30.20;55.30
13721;DHT22;6932;51.438;5.470;2022-07-04T13:21:30;30.20;55.30
13721;DHT22;6932;51.438;5.470;2022-07-04T13:23:56;30.30;55.30
13721;DHT22;6932;51.438;5.470;2022-07-04T13:26:22;30.30;54.40
13721;DHT22;6932;51.438;5.470;2022-07-04T13:28:48;30.20;54.30
13721;DHT22;6932;51.438;5.470;2022-07-04T13:31:14;30.20;54.50
13721;DHT22;6932;51.438;5.470;2022-07-04T13:33:40;30.30;54.80
13721;DHT22;6932;51.438;5.470;2022-07-04T13:36:06;30.30;54.80
13721;DHT22;6932;51.438;5.470;2022-07-04T13:38:32;30.30;54.00
13721;DHT22;6932;51.438;5.470;2022-07-04T13:40:58;30.30;53.40
13721;DHT22;6932;51.438;5.470;2022-07-04T13:43:24;30.30;53.40
13721;DHT22;6932;51.438;5.470;2022-07-04T13:45:54;30.30;53.60
13721;DHT22;6932;51.438;5.470;2022-07-04T13:48:21;30.30;53.60
13721;DHT22;6932;51.438;5.470;2022-07-04T13:50:47;30.30;54.10
13721;DHT22;6932;51.438;5.470;2022-07-04T13:53:13;30.30;54.40
13721;DHT22;6932;51.438;5.470;2022-07-04T13:55:39;30.30;54.40
13721;DHT22;6932;51.438;5.470;2022-07-04T13:58:07;30.30;54.50
13721;DHT22;6932;51.438;5.470;2022-07-04T14:00:34;30.20;54.60
13721;DHT22;6932;51.438;5.470;2022-07-04T14:03:01;30.20;54.70
13721;DHT22;6932;51.438;5.470;2022-07-04T14:05:27;30.20;54.40
13721;DHT22;6932;51.438;5.470;2022-07-04T14:07:53;30.10;54.20
13721;DHT22;6932;51.438;5.470;2022-07-04T14:10:20;30.10;54.20
13721;DHT22;6932;51.438;5.470;2022-07-04T14:12:46;30.10;54.30
13721;DHT22;6932;51.438;5.470;2022-07-04T14:15:12;30.10;54.30
13721;DHT22;6932;51.438;5.470;2022-07-04T14:17:38;30.00;54.10
13721;DHT22;6932;51.438;5.470;2022-07-04T14:20:08;30.10;54.20
13721;DHT22;6932;51.438;5.470;2022-07-04T14:22:36;30.10;54.40
13721;DHT22;6932;51.438;5.470;2022-07-04T14:25:04;30.00;54.50
13721;DHT22;6932;51.438;5.470;2022-07-04T14:27:30;30.00;54.30
13721;DHT22;6932;51.438;5.470;2022-07-04T14:29:56;30.10;54.30
13721;DHT22;6932;51.438;5.470;2022-07-04T14:32:22;30.10;54.40
13721;DHT22;6932;51.438;5.470;2022-07-04T14:34:48;30.10;54.40
13721;DHT22;6932;51.438;5.470;2022-07-04T14:37:13;30.10;54.40
13721;DHT22;6932;51.438;5.470;2022-07-04T14:39:39;30.00;54.40
13721;DHT22;6932;51.438;5.470;2022-07-04T14:42:05;30.00;54.50
13721;DHT22;6932;51.438;5.470;2022-07-04T14:44:31;30.00;54.40
13721;DHT22;6932;51.438;5.470;2022-07-04T14:47:01;30.00;54.30
13721;DHT22;6932;51.438;5.470;2022-07-04T14:49:28;30.00;54.30
13721;DHT22;6932;51.438;5.470;2022-07-04T14:51:53;30.00;54.40
13721;DHT22;6932;51.438;5.470;2022-07-04T14:54:22;30.00;54.50
13721;DHT22;6932;51.438;5.470;2022-07-04T14:56:48;30.00;54.50
13721;DHT22;6932;51.438;5.470;2022-07-04T14:59:14;29.90;54.20
13721;DHT22;6932;51.438;5.470;2022-07-04T15:01:40;29.90;54.20
13721;DHT22;6932;51.438;5.470;2022-07-04T15:04:06;29.90;54.40
13721;DHT22;6932;51.438;5.470;2022-07-04T15:06:32;29.90;54.40
13721;DHT22;6932;51.438;5.470;2022-07-04T15:08:58;29.90;54.70
13721;DHT22;6932;51.438;5.470;2022-07-04T15:11:24;29.90;54.90
13721;DHT22;6932;51.438;5.470;2022-07-04T15:13:50;29.90;55.00
13721;DHT22;6932;51.438;5.470;2022-07-04T15:16:16;29.90;55.20
13721;DHT22;6932;51.438;5.470;2022-07-04T15:18:42;29.90;55.20
13721;DHT22;6932;51.438;5.470;2022-07-04T15:21:08;29.80;55.20
13721;DHT22;6932;51.438;5.470;2022-07-04T15:23:52;29.90;55.40
13721;DHT22;6932;51.438;5.470;2022-07-04T15:26:36;29.90;55.10
13721;DHT22;6932;51.438;5.470;2022-07-04T15:29:02;29.90;54.80
13721;DHT22;6932;51.438;5.470;2022-07-04T15:31:28;29.90;54.90
13721;DHT22;6932;51.438;5.470;2022-07-04T15:33:54;29.90;54.90
13721;DHT22;6932;51.438;5.470;2022-07-04T15:36:20;29.90;55.00
13721;DHT22;6932;51.438;5.470;2022-07-04T15:38:47;29.90;55.30
13721;DHT22;6932;51.438;5.470;2022-07-04T15:41:13;29.90;55.30
13721;DHT22;6932;51.438;5.470;2022-07-04T15:43:41;29.90;55.40
13721;DHT22;6932;51.438;5.470;2022-07-04T15:46:07;29.90;55.60
13721;DHT22;6932;51.438;5.470;2022-07-04T15:48:33;29.90;55.80
13721;DHT22;6932;51.438;5.470;2022-07-04T15:50:59;29.90;55.90
13721;DHT22;6932;51.438;5.470;2022-07-04T15:53:25;29.90;55.80
13721;DHT22;6932;51.438;5.470;2022-07-04T15:55:51;29.90;55.80
13721;DHT22;6932;51.438;5.470;2022-07-04T15:58:16;29.90;55.80
13721;DHT22;6932;51.438;5.470;2022-07-04T16:00:42;29.90;55.80
13721;DHT22;6932;51.438;5.470;2022-07-04T16:03:08;29.80;55.80
13721;DHT22;6932;51.438;5.470;2022-07-04T16:05:34;29.80;56.10
13721;DHT22;6932;51.438;5.470;2022-07-04T16:08:00;29.80;56.10
13721;DHT22;6932;51.438;5.470;2022-07-04T16:10:26;29.80;56.00
13721;DHT22;6932;51.438;5.470;2022-07-04T16:12:53;29.80;55.90
13721;DHT22;6932;51.438;5.470;2022-07-04T16:15:19;29.70;55.70
13721;DHT22;6932;51.438;5.470;2022-07-04T16:17:44;29.70;55.60
13721;DHT22;6932;51.438;5.470;2022-07-04T16:20:11;29.70;55.80
13721;DHT22;6932;51.438;5.470;2022-07-04T16:22:37;29.70;56.00
13721;DHT22;6932;51.438;5.470;2022-07-04T16:25:03;29.70;56.10
13721;DHT22;6932;51.438;5.470;2022-07-04T16:27:29;29.70;56.00
13721;DHT22;6932;51.438;5.470;2022-07-04T16:29:56;29.70;56.10
13721;DHT22;6932;51.438;5.470;2022-07-04T16:32:22;29.70;56.20
13721;DHT22;6932;51.438;5.470;2022-07-04T16:34:50;29.60;55.60
13721;DHT22;6932;51.438;5.470;2022-07-04T16:37:16;29.70;55.80
13721;DHT22;6932;51.438;5.470;2022-07-04T16:39:42;29.60;56.00
13721;DHT22;6932;51.438;5.470;2022-07-04T16:42:08;29.60;56.00
13721;DHT22;6932;51.438;5.470;2022-07-04T16:44:33;29.60;55.60